This is the latest recevied weather packets stored in our database for station/object KB2EAR-13. If no packets are shown the sender has not sent any weather packets the latest 10 day(s).
| Time | Temp. | Humidity | Pressure | Rain* | Wind** | Luminosity | Snow |
|---|---|---|---|---|---|---|---|
| 1777577417 | 16.11° C | 69% | 1007.5 hPa | 0 mm | - | - | - |
| 1777577117 | 16.11° C | 70% | 1007.5 hPa | 0 mm | - | - | - |
| 1777577004 | 16.11° C | 70% | 1007.6 hPa | 0 mm | - | - | - |
| 1777576817 | 16.11° C | 70% | 1007.6 hPa | 0 mm | - | - | - |
| 1777576477 | 15.56° C | 69% | 1007.9 hPa | 0 mm | - | - | - |
| 1777576217 | 15.56° C | 69% | 1007.9 hPa | 0 mm | - | - | - |
| 1777575238 | 15° C | 74% | 1008 hPa | 0 mm | - | - | - |
| 1777575017 | 15° C | 74% | 1008 hPa | 0 mm | - | - | - |
| 1777573649 | 14.44° C | 79% | 1008.1 hPa | 0 mm | - | - | - |
| 1777573517 | 14.44° C | 79% | 1008.1 hPa | 0 mm | - | - | - |
| 1777572432 | 14.44° C | 80% | 1008.1 hPa | 0 mm | - | - | - |
| 1777572017 | 14.44° C | 80% | 1007.9 hPa | 0 mm | - | - | - |
| 1777571322 | 13.89° C | 81% | 1007.9 hPa | 0 mm | - | - | - |
| 1777570517 | 13.89° C | 81% | 1008 hPa | 0 mm | - | - | - |
| 1777570217 | 13.89° C | 81% | 1008.2 hPa | 0 mm | - | - | - |
| 1777569917 | 13.89° C | 81% | 1008.1 hPa | 0 mm | - | - | - |
| 1777569317 | 13.89° C | 81% | 1008.1 hPa | 0 mm | - | - | - |
| 1777569134 | 13.89° C | 81% | 1008 hPa | 0 mm | - | - | - |
| 1777568717 | 13.89° C | 80% | 1007.9 hPa | 0 mm | - | - | - |
| 1777568417 | 13.89° C | 79% | 1007.9 hPa | 0 mm | - | - | - |
| 1777567922 | 14.44° C | 80% | 1007.9 hPa | 0 mm | - | - | - |
| 1777566917 | 13.89° C | 82% | 1007.9 hPa | 0 mm | - | - | - |
| 1777566017 | 12.78° C | 86% | 1007.9 hPa | 0 mm | - | - | - |
| 1777565717 | 12.22° C | 86% | 1007.9 hPa | 0 mm | - | - | - |
| 1777565417 | 12.22° C | 86% | 1008.1 hPa | 0 mm | - | - | - |
* Rain latest hour (hover to see other rain measurements)
** Current wind speed in m/s (hover to see current wind gust speed)